ヌーク の空港の天気 - METARとTAF

ヌーク空港 ( BGGH / GOH ) - グリーンランド ヌーク
飛行場実況気象(Metar)
観測時間10/20 01:50 WGST (10/20 03:50 UTC)
風向・風速北東 4m/s
視程-
天気現象
なし
気温0℃
湿度93%
気圧1008hPa
METARBGGH 200350Z AUTO 04008KT 9999NDV NCD 00/M01 Q1008
過去の天気等 Google飛行場航空写真 Wunderground天気予報

過去48時間のMETAR

飛行場予報(TAF)
発表時間: 10/19 18:11 WGST (10/19 20:11 UTC)
予報対象時間: 19日19時 WGST ~ 19日23時 WGST
風向・風速東北東 4m/s
視程10km以上
少しの雲 雲底高度 1520m
全天の4割程度の雲 雲底高度 6100m
TAF BGGH 192011Z 1921/2001 06008KT 9999 FEW050 SCT200